createdAt,value
2023-02-02T00:01:41.634Z,12.77
2023-02-02T00:04:09.736Z,12.25
2023-02-02T00:06:36.428Z,10.77
2023-02-02T00:09:04.064Z,15.45
2023-02-02T00:11:30.723Z,11.70
2023-02-02T00:13:57.377Z,13.88
2023-02-02T00:16:27.266Z,13.40
2023-02-02T00:19:01.695Z,11.95
2023-02-02T00:21:28.958Z,11.43
2023-02-02T00:23:55.774Z,11.63
2023-02-02T00:26:22.489Z,12.18
2023-02-02T00:28:49.211Z,14.60
2023-02-02T00:31:15.915Z,14.15
2023-02-02T00:33:49.760Z,13.70
2023-02-02T00:36:17.014Z,13.27
2023-02-02T00:38:43.727Z,13.27
2023-02-02T00:41:10.429Z,11.00
2023-02-02T00:43:37.112Z,11.13
2023-02-02T00:46:04.066Z,11.05
2023-02-02T00:48:30.737Z,10.18
2023-02-02T00:50:57.959Z,12.45
2023-02-02T00:53:24.690Z,10.02
2023-02-02T00:55:51.391Z,10.45
2023-02-02T00:58:18.078Z,21.02
2023-02-02T01:00:44.793Z,6.82
2023-02-02T01:03:13.331Z,8.10
2023-02-02T01:05:40.450Z,17.60
2023-02-02T01:08:07.128Z,9.07
2023-02-02T01:10:34.234Z,11.60
2023-02-02T01:13:01.172Z,13.23
2023-02-02T01:15:27.912Z,4.53
2023-02-02T01:17:54.616Z,9.30
2023-02-02T01:20:21.474Z,6.55
2023-02-02T01:22:48.182Z,5.18
2023-02-02T01:25:14.995Z,10.18
2023-02-02T01:27:43.174Z,8.32
2023-02-02T01:30:10.826Z,10.10
2023-02-02T01:32:37.492Z,12.57
2023-02-02T01:35:04.328Z,6.80
2023-02-02T01:37:30.990Z,6.53
2023-02-02T01:39:57.656Z,6.47
2023-02-02T01:42:24.666Z,5.95
2023-02-02T01:45:09.528Z,8.57
2023-02-02T01:47:49.469Z,20.90
2023-02-02T01:50:19.975Z,7.13
2023-02-02T01:52:48.969Z,8.10
2023-02-02T01:55:18.543Z,6.50
2023-02-02T01:58:01.376Z,6.65
2023-02-02T02:00:28.332Z,9.25
2023-02-02T02:03:01.823Z,6.50
2023-02-02T02:05:38.883Z,6.10
2023-02-02T02:08:14.583Z,6.72
2023-02-02T02:10:41.270Z,7.65
2023-02-02T02:13:07.957Z,9.80
2023-02-02T02:16:18.344Z,8.88
2023-02-02T02:19:06.877Z,9.35
2023-02-02T02:22:04.351Z,14.68
2023-02-02T02:25:01.890Z,15.25
2023-02-02T02:27:37.480Z,19.58
2023-02-02T02:30:37.748Z,18.35
2023-02-02T02:35:46.536Z,21.42
2023-02-02T02:38:39.166Z,10.13
2023-02-02T02:41:21.538Z,9.55
2023-02-02T02:43:56.734Z,7.78
2023-02-02T02:46:24.034Z,10.75
2023-02-02T02:48:50.755Z,9.75
2023-02-02T02:51:56.192Z,6.20
2023-02-02T02:54:25.005Z,11.68
2023-02-02T02:57:04.819Z,15.45
2023-02-02T02:59:50.086Z,18.42
2023-02-02T03:02:53.821Z,17.52
2023-02-02T03:05:32.195Z,17.77
2023-02-02T03:08:08.080Z,15.10
2023-02-02T03:10:35.544Z,6.55
2023-02-02T03:13:07.986Z,26.13
2023-02-02T03:15:34.987Z,14.00
2023-02-02T03:18:01.764Z,5.82
2023-02-02T03:20:28.604Z,7.00
2023-02-02T03:22:55.251Z,7.32
2023-02-02T03:25:22.034Z,6.43
2023-02-02T03:27:48.779Z,6.32
2023-02-02T03:30:15.769Z,9.23
2023-02-02T03:32:42.488Z,8.35
2023-02-02T03:35:09.577Z,9.93
2023-02-02T03:37:36.309Z,9.20
2023-02-02T03:40:03.120Z,6.47
2023-02-02T03:42:29.813Z,6.95
2023-02-02T03:44:56.494Z,7.03
2023-02-02T03:47:23.235Z,8.88
2023-02-02T03:49:49.901Z,11.30
2023-02-02T03:52:16.631Z,9.43
2023-02-02T03:54:43.300Z,8.73
2023-02-02T03:57:09.951Z,5.93
2023-02-02T03:59:36.786Z,8.77
2023-02-02T04:02:03.473Z,9.18
2023-02-02T04:04:30.148Z,10.52
2023-02-02T04:06:58.752Z,7.60
2023-02-02T04:09:25.971Z,6.60
2023-02-02T04:11:52.607Z,12.50
2023-02-02T04:14:19.388Z,10.45
2023-02-02T04:16:46.132Z,10.65
2023-02-02T04:19:15.944Z,8.27
2023-02-02T04:21:42.847Z,20.00
2023-02-02T04:24:13.638Z,21.60
2023-02-02T04:26:40.715Z,5.15
2023-02-02T04:29:07.759Z,5.38
2023-02-02T04:31:34.510Z,11.82
2023-02-02T04:34:01.440Z,11.35
2023-02-02T04:36:28.297Z,5.97
2023-02-02T04:38:55.504Z,8.57
2023-02-02T04:41:22.903Z,9.13
2023-02-02T04:43:49.587Z,8.07
2023-02-02T04:46:16.553Z,6.20
2023-02-02T04:48:43.627Z,5.32
2023-02-02T04:51:12.879Z,5.13
2023-02-02T04:53:41.004Z,3.95
2023-02-02T04:56:09.739Z,5.13
2023-02-02T04:58:36.609Z,5.07
2023-02-02T05:01:09.453Z,6.13
2023-02-02T05:03:36.213Z,8.60
2023-02-02T05:06:04.245Z,7.32
2023-02-02T05:08:31.111Z,9.07
2023-02-02T05:10:57.872Z,8.55
2023-02-02T05:13:24.547Z,9.15
2023-02-02T05:15:51.234Z,8.82
2023-02-02T05:18:17.873Z,9.77
2023-02-02T05:20:44.525Z,9.68
2023-02-02T05:23:11.178Z,5.53
2023-02-02T05:25:37.842Z,5.90
2023-02-02T05:28:04.676Z,4.80
2023-02-02T05:30:33.460Z,6.30
2023-02-02T05:33:00.289Z,5.32
2023-02-02T05:35:27.298Z,5.85
2023-02-02T05:37:54.037Z,5.25
2023-02-02T05:40:20.658Z,4.82
2023-02-02T05:42:50.169Z,5.00
2023-02-02T05:47:43.437Z,10.95
2023-02-02T05:50:10.605Z,5.35
2023-02-02T05:52:37.631Z,5.32
2023-02-02T05:55:04.697Z,5.72
2023-02-02T05:57:31.365Z,6.65
2023-02-02T05:59:58.021Z,5.93
2023-02-02T06:02:24.845Z,6.07
2023-02-02T06:04:51.510Z,5.65
2023-02-02T06:07:18.222Z,6.80
2023-02-02T06:09:44.879Z,5.47
2023-02-02T06:12:11.595Z,6.88
2023-02-02T06:14:38.333Z,5.75
2023-02-02T06:17:05.159Z,6.63
2023-02-02T06:19:31.853Z,10.13
2023-02-02T06:21:58.687Z,6.30
2023-02-02T06:24:25.468Z,4.90
2023-02-02T06:26:52.183Z,6.72
2023-02-02T06:29:18.877Z,5.38
2023-02-02T06:31:45.711Z,5.30
2023-02-02T06:34:15.590Z,6.07
2023-02-02T06:36:42.568Z,7.22
2023-02-02T06:39:09.772Z,8.10
2023-02-02T06:41:36.773Z,7.03
2023-02-02T06:44:03.614Z,7.68
2023-02-02T06:46:30.441Z,8.45
2023-02-02T06:48:57.139Z,6.40
2023-02-02T06:51:23.804Z,6.65
2023-02-02T06:53:50.679Z,8.57
2023-02-02T06:56:17.757Z,10.70
2023-02-02T06:58:44.976Z,9.25
2023-02-02T07:01:13.529Z,9.13
2023-02-02T07:03:40.707Z,8.23
2023-02-02T07:06:15.355Z,9.70
2023-02-02T07:08:42.430Z,6.78
2023-02-02T07:11:14.974Z,6.70
2023-02-02T07:13:47.342Z,6.32
2023-02-02T07:16:15.313Z,6.43
2023-02-02T07:18:43.289Z,8.07
2023-02-02T07:21:16.840Z,4.65
2023-02-02T07:23:43.484Z,5.00
2023-02-02T07:26:10.723Z,4.97
2023-02-02T07:28:37.408Z,4.53
2023-02-02T07:31:36.117Z,4.60
2023-02-02T07:34:03.128Z,3.80
2023-02-02T07:36:29.818Z,4.85
2023-02-02T07:38:57.808Z,5.45
2023-02-02T07:41:25.097Z,7.93
2023-02-02T07:43:52.161Z,7.55
2023-02-02T07:46:19.505Z,6.88
2023-02-02T07:48:46.552Z,6.25
2023-02-02T07:51:16.036Z,6.68
2023-02-02T07:53:47.489Z,5.18
2023-02-02T07:56:22.848Z,6.78
2023-02-02T07:58:51.886Z,4.40
2023-02-02T08:01:20.556Z,5.13
2023-02-02T08:03:47.308Z,4.32
2023-02-02T08:06:22.678Z,4.95
2023-02-02T08:08:49.903Z,5.10
2023-02-02T08:11:18.732Z,6.50
2023-02-02T08:13:55.702Z,5.07
2023-02-02T08:16:23.380Z,5.15
2023-02-02T08:18:50.400Z,4.38
2023-02-02T08:21:17.607Z,5.25
2023-02-02T08:23:45.722Z,5.07
2023-02-02T08:26:19.689Z,4.97
2023-02-02T08:28:48.796Z,4.78
2023-02-02T08:31:19.197Z,6.00
2023-02-02T08:33:46.419Z,3.25
2023-02-02T08:36:20.388Z,3.95
2023-02-02T08:38:47.336Z,5.43
2023-02-02T08:41:17.240Z,5.20
2023-02-02T08:43:44.430Z,5.05
2023-02-02T08:46:16.837Z,4.82
2023-02-02T08:48:44.157Z,4.43
2023-02-02T08:51:14.471Z,4.55
2023-02-02T08:53:42.196Z,4.47
2023-02-02T08:56:16.213Z,4.32
2023-02-02T08:58:54.620Z,4.35
2023-02-02T09:01:23.708Z,4.78
2023-02-02T09:03:54.478Z,4.95
2023-02-02T09:06:21.425Z,4.82
2023-02-02T09:08:48.529Z,5.10
2023-02-02T09:11:17.575Z,5.00
2023-02-02T09:13:45.992Z,4.63
2023-02-02T09:16:15.115Z,4.68
2023-02-02T09:18:42.218Z,4.30
2023-02-02T09:21:11.147Z,5.05
2023-02-02T09:23:39.949Z,3.90
2023-02-02T09:26:24.849Z,4.13
2023-02-02T09:29:02.587Z,4.35
2023-02-02T09:31:30.724Z,7.13
2023-02-02T09:34:02.214Z,9.93
2023-02-02T09:36:29.377Z,4.40
2023-02-02T09:38:56.115Z,4.53
2023-02-02T09:41:38.166Z,5.93
2023-02-02T09:44:23.251Z,4.40
2023-02-02T09:47:11.478Z,4.03
2023-02-02T09:49:52.673Z,3.28
2023-02-02T09:52:29.363Z,3.90
2023-02-02T09:55:00.979Z,4.43
2023-02-02T09:57:37.741Z,3.63
2023-02-02T10:00:05.929Z,3.70
2023-02-02T10:02:45.817Z,7.20
2023-02-02T10:05:25.083Z,4.47
2023-02-02T10:07:54.641Z,4.90
2023-02-02T10:10:26.302Z,4.65
2023-02-02T10:13:04.003Z,4.25
2023-02-02T10:15:32.651Z,4.20
2023-02-02T10:18:27.574Z,3.40
2023-02-02T10:21:03.359Z,3.45
2023-02-02T10:23:38.153Z,4.25
2023-02-02T10:26:04.960Z,3.20
2023-02-02T10:28:44.094Z,3.10
2023-02-02T10:31:50.010Z,3.08
2023-02-02T10:34:25.333Z,3.72
2023-02-02T10:37:26.363Z,6.63
2023-02-02T10:39:56.156Z,3.90
2023-02-02T10:43:13.847Z,3.38
2023-02-02T10:45:43.388Z,3.85
2023-02-02T10:48:19.326Z,5.25
2023-02-02T10:50:50.042Z,3.92
2023-02-02T10:53:17.301Z,4.22
2023-02-02T10:55:50.808Z,4.57
2023-02-02T10:58:28.774Z,5.18
2023-02-02T11:00:58.210Z,5.07
2023-02-02T11:03:29.641Z,4.82
2023-02-02T11:06:17.676Z,4.55
2023-02-02T11:09:03.310Z,3.28
2023-02-02T11:11:35.375Z,3.70
2023-02-02T11:14:08.052Z,4.97
2023-02-02T11:16:43.342Z,5.65
2023-02-02T11:19:20.008Z,3.72
2023-02-02T11:22:01.689Z,2.90
2023-02-02T11:24:36.787Z,2.60
2023-02-02T11:27:05.532Z,3.15
2023-02-02T11:29:46.912Z,4.57
2023-02-02T11:32:32.667Z,3.53
2023-02-02T11:35:08.639Z,4.72
2023-02-02T11:37:39.125Z,4.00
2023-02-02T11:40:30.509Z,2.90
2023-02-02T11:42:59.339Z,2.05
2023-02-02T11:45:41.444Z,3.45
2023-02-02T11:48:16.479Z,2.78
2023-02-02T11:50:49.118Z,2.70
2023-02-02T11:53:43.101Z,3.97
2023-02-02T11:56:20.990Z,2.60
2023-02-02T11:58:52.770Z,3.65
2023-02-02T12:01:26.890Z,3.63
2023-02-02T12:03:56.116Z,2.58
2023-02-02T12:08:58.953Z,2.85
2023-02-02T12:11:48.929Z,3.92
2023-02-02T12:14:24.598Z,2.63
2023-02-02T12:16:53.913Z,4.07
2023-02-02T12:19:42.404Z,3.17
2023-02-02T12:22:27.503Z,3.05
2023-02-02T12:25:11.509Z,3.45
2023-02-02T12:28:25.841Z,3.20
2023-02-02T12:31:15.593Z,3.45
2023-02-02T12:33:51.265Z,3.30
2023-02-02T12:36:39.603Z,2.88
2023-02-02T12:39:47.779Z,3.28
2023-02-02T12:42:20.357Z,4.30
2023-02-02T12:44:54.154Z,2.35
2023-02-02T12:47:51.964Z,2.78
2023-02-02T12:50:24.989Z,3.47
2023-02-02T12:53:07.159Z,3.72
2023-02-02T12:56:26.123Z,4.97
2023-02-02T12:59:19.038Z,3.63
2023-02-02T13:02:16.509Z,3.55
2023-02-02T13:04:57.470Z,4.65
2023-02-02T13:07:33.074Z,4.00
2023-02-02T13:09:59.723Z,3.83
2023-02-02T13:12:26.990Z,2.78
2023-02-02T13:14:57.761Z,2.67
2023-02-02T13:17:34.194Z,4.30
2023-02-02T13:20:05.546Z,4.90
2023-02-02T13:22:36.573Z,6.15
2023-02-02T13:25:05.605Z,7.00
2023-02-02T13:27:33.104Z,4.22
2023-02-02T13:30:05.993Z,5.63
2023-02-02T13:32:40.395Z,4.65
2023-02-02T13:35:18.734Z,3.22
2023-02-02T13:37:51.692Z,4.90
2023-02-02T13:40:24.387Z,4.22
2023-02-02T13:43:04.620Z,4.05
2023-02-02T13:45:53.057Z,3.40
2023-02-02T13:48:35.226Z,3.40
2023-02-02T13:51:32.523Z,8.63
2023-02-02T13:54:20.495Z,3.58
2023-02-02T13:57:38.288Z,2.30
2023-02-02T14:00:13.081Z,3.22
2023-02-02T14:02:56.241Z,3.28
2023-02-02T14:05:30.218Z,3.97
2023-02-02T14:08:00.571Z,3.70
2023-02-02T14:10:34.605Z,4.32
2023-02-02T14:13:35.948Z,5.20
2023-02-02T14:16:06.047Z,5.22
2023-02-02T14:18:52.091Z,4.35
2023-02-02T14:21:33.760Z,4.43
2023-02-02T14:24:03.149Z,4.95
2023-02-02T14:26:51.016Z,6.28
2023-02-02T14:29:47.237Z,5.75
2023-02-02T14:32:29.250Z,8.52
2023-02-02T14:34:56.745Z,5.78
2023-02-02T14:37:26.415Z,6.85
2023-02-02T14:40:11.224Z,7.80
2023-02-02T14:43:18.293Z,6.97
2023-02-02T14:46:05.294Z,5.93
2023-02-02T14:48:32.005Z,3.72
2023-02-02T14:51:00.638Z,5.47
2023-02-02T14:53:29.669Z,4.85
2023-02-02T14:56:01.116Z,6.45
2023-02-02T14:58:46.355Z,4.40
2023-02-02T15:01:25.021Z,4.03
2023-02-02T15:04:20.929Z,4.40
2023-02-02T15:06:48.891Z,4.78
2023-02-02T15:09:26.682Z,4.80
2023-02-02T15:12:01.193Z,4.10
2023-02-02T15:14:35.900Z,6.32
2023-02-02T15:17:13.089Z,5.45
2023-02-02T15:19:42.201Z,6.10
2023-02-02T15:22:29.908Z,6.32
2023-02-02T15:24:59.228Z,7.55
2023-02-02T15:27:26.832Z,5.40
2023-02-02T15:29:57.258Z,5.82
2023-02-02T15:32:25.292Z,4.90
2023-02-02T15:34:59.179Z,4.20
2023-02-02T15:37:34.278Z,7.82
2023-02-02T15:40:02.444Z,9.45
2023-02-02T15:42:55.922Z,11.50
2023-02-02T15:45:29.394Z,10.95
2023-02-02T15:47:58.049Z,11.80
2023-02-02T15:50:25.545Z,14.63
2023-02-02T15:52:53.110Z,17.55
2023-02-02T15:55:34.710Z,19.40
2023-02-02T15:58:02.772Z,22.48
2023-02-02T16:00:33.634Z,15.52
2023-02-02T16:03:19.906Z,10.38
2023-02-02T16:05:54.910Z,10.32
2023-02-02T16:08:25.258Z,8.85
2023-02-02T16:11:03.060Z,9.60
2023-02-02T16:13:30.222Z,8.60
2023-02-02T16:16:27.036Z,11.02
2023-02-02T16:19:08.946Z,12.13
2023-02-02T16:24:05.200Z,12.98
2023-02-02T16:26:32.880Z,12.98
2023-02-02T16:29:00.697Z,12.88
2023-02-02T16:31:28.877Z,20.10
2023-02-02T16:33:57.143Z,10.18
2023-02-02T16:36:26.819Z,11.82
2023-02-02T16:38:55.172Z,10.73
2023-02-02T16:41:26.565Z,9.13
2023-02-02T16:43:53.468Z,10.40
2023-02-02T16:46:45.697Z,53.72
2023-02-02T16:49:22.885Z,8.57
2023-02-02T16:52:08.517Z,7.88
2023-02-02T16:54:35.444Z,9.75
2023-02-02T16:57:03.496Z,9.32
2023-02-02T16:59:35.337Z,14.60
2023-02-02T17:02:26.639Z,10.90
2023-02-02T17:04:58.466Z,10.15
2023-02-02T17:07:25.747Z,8.25
2023-02-02T17:10:18.659Z,11.93
2023-02-02T17:12:46.016Z,10.75
2023-02-02T17:15:18.672Z,9.75
2023-02-02T17:17:49.646Z,12.40
2023-02-02T17:20:17.957Z,12.25
2023-02-02T17:22:51.264Z,11.75
2023-02-02T17:25:22.006Z,10.07
2023-02-02T17:27:48.746Z,8.80
2023-02-02T17:30:17.423Z,8.20
2023-02-02T17:32:44.193Z,9.35
2023-02-02T17:35:22.192Z,10.40
2023-02-02T17:37:51.380Z,9.88
2023-02-02T17:40:19.397Z,8.88
2023-02-02T17:42:48.452Z,6.88
2023-02-02T17:45:23.085Z,5.57
2023-02-02T17:47:51.061Z,4.15
2023-02-02T17:50:18.000Z,4.22
2023-02-02T17:52:46.208Z,3.83
2023-02-02T17:55:15.744Z,4.13
2023-02-02T18:00:10.235Z,3.83
2023-02-02T18:02:37.034Z,3.83
2023-02-02T18:05:04.470Z,3.67
2023-02-02T18:07:31.629Z,4.45
2023-02-02T18:09:58.429Z,3.70
2023-02-02T18:12:25.101Z,6.00
2023-02-02T18:14:51.925Z,4.63
2023-02-02T18:17:18.652Z,4.25
2023-02-02T18:19:46.892Z,4.18
2023-02-02T18:22:14.912Z,6.28
2023-02-02T18:24:41.558Z,3.40
2023-02-02T18:27:09.033Z,3.38
2023-02-02T18:29:36.176Z,4.45
2023-02-02T18:32:03.550Z,3.80
2023-02-02T18:34:34.616Z,4.43
2023-02-02T18:37:01.974Z,3.13
2023-02-02T18:39:29.452Z,3.58
2023-02-02T18:41:56.384Z,4.35
2023-02-02T18:44:25.070Z,3.40
2023-02-02T18:46:52.277Z,3.10
2023-02-02T18:49:19.806Z,3.15
2023-02-02T18:51:47.957Z,3.45
2023-02-02T18:54:15.127Z,5.95
2023-02-02T18:56:41.895Z,7.18
2023-02-02T18:59:08.910Z,4.82
2023-02-02T19:01:36.558Z,4.20
2023-02-02T19:04:03.631Z,4.82
2023-02-02T19:06:48.855Z,5.70
2023-02-02T19:09:17.357Z,4.20
2023-02-02T19:11:48.696Z,4.82
2023-02-02T19:14:31.175Z,3.65
2023-02-02T19:17:15.052Z,5.75
2023-02-02T19:19:43.028Z,4.55
2023-02-02T19:22:22.266Z,4.97
2023-02-02T19:24:49.468Z,4.18
2023-02-02T19:27:19.114Z,3.22
2023-02-02T19:29:47.646Z,3.50
2023-02-02T19:32:21.849Z,3.42
2023-02-02T19:34:57.990Z,3.55
2023-02-02T19:37:30.043Z,4.03
2023-02-02T19:40:16.043Z,4.20
2023-02-02T19:43:06.449Z,8.30
2023-02-02T19:45:34.412Z,5.97
2023-02-02T19:48:09.413Z,6.82
2023-02-02T19:50:42.563Z,8.10
2023-02-02T19:53:34.292Z,10.02
2023-02-02T19:56:02.429Z,9.70
2023-02-02T19:58:37.245Z,8.27
2023-02-02T20:01:10.768Z,7.15
2023-02-02T20:03:46.741Z,9.25
2023-02-02T20:06:19.382Z,8.68
2023-02-02T20:08:46.082Z,7.97
2023-02-02T20:11:37.334Z,9.32
2023-02-02T20:14:19.093Z,7.75
2023-02-02T20:16:49.572Z,9.68
2023-02-02T20:19:25.227Z,8.27
2023-02-02T20:24:33.018Z,11.32
2023-02-02T20:27:19.256Z,8.52
2023-02-02T20:29:47.919Z,11.52
2023-02-02T20:32:26.618Z,6.28
2023-02-02T20:34:55.003Z,5.03
2023-02-02T20:37:22.817Z,4.70
2023-02-02T20:39:55.721Z,5.47
2023-02-02T20:42:22.712Z,7.80
2023-02-02T20:44:49.503Z,8.68
2023-02-02T20:47:16.243Z,6.95
2023-02-02T20:49:43.305Z,7.80
2023-02-02T20:52:13.032Z,8.18
2023-02-02T20:54:39.942Z,9.75
2023-02-02T20:57:06.932Z,6.40
2023-02-02T20:59:33.602Z,8.75
2023-02-02T21:02:00.420Z,6.30
2023-02-02T21:04:27.571Z,5.22
2023-02-02T21:06:55.474Z,7.47
2023-02-02T21:09:22.554Z,7.05
2023-02-02T21:11:49.257Z,7.28
2023-02-02T21:14:15.998Z,8.10
2023-02-02T21:16:43.070Z,6.82
2023-02-02T21:19:10.210Z,5.85
2023-02-02T21:21:36.908Z,8.10
2023-02-02T21:24:04.345Z,6.90
2023-02-02T21:26:31.194Z,8.02
2023-02-02T21:28:58.530Z,5.78
2023-02-02T21:31:25.991Z,5.10
2023-02-02T21:33:53.339Z,4.20
2023-02-02T21:36:37.710Z,3.55
2023-02-02T21:39:31.020Z,3.85
2023-02-02T21:42:09.999Z,3.67
2023-02-02T21:44:37.471Z,3.95
2023-02-02T21:47:26.681Z,3.80
2023-02-02T21:49:55.750Z,3.53
2023-02-02T21:52:22.455Z,4.22
2023-02-02T21:54:49.646Z,4.15
2023-02-02T21:57:25.377Z,3.30
2023-02-02T22:02:44.563Z,4.10
2023-02-02T22:05:35.941Z,4.75
2023-02-02T22:08:23.717Z,4.18
2023-02-02T22:10:50.407Z,3.63
2023-02-02T22:13:19.747Z,3.42
2023-02-02T22:15:48.367Z,4.28
2023-02-02T22:18:23.255Z,4.75
2023-02-02T22:20:51.083Z,7.47
2023-02-02T22:23:25.401Z,6.40
2023-02-02T22:25:53.677Z,4.78
2023-02-02T22:28:23.103Z,7.40
2023-02-02T22:30:51.982Z,5.40
2023-02-02T22:33:18.894Z,3.58
2023-02-02T22:35:46.294Z,4.97
2023-02-02T22:38:18.251Z,3.90
2023-02-02T22:40:45.924Z,4.20
2023-02-02T22:43:14.904Z,3.80
2023-02-02T22:45:41.824Z,3.40
2023-02-02T22:48:08.927Z,4.30
2023-02-02T22:50:36.006Z,3.90
2023-02-02T22:53:04.132Z,3.47
2023-02-02T22:55:31.490Z,4.07
2023-02-02T22:57:58.337Z,4.03
2023-02-02T23:00:27.298Z,3.92
2023-02-02T23:02:55.194Z,3.92
2023-02-02T23:05:22.857Z,3.15
2023-02-02T23:07:49.998Z,3.90
2023-02-02T23:10:19.733Z,4.25
2023-02-02T23:12:47.421Z,3.85
2023-02-02T23:15:14.924Z,3.45
2023-02-02T23:17:42.211Z,3.83
2023-02-02T23:20:11.289Z,4.25
2023-02-02T23:22:38.130Z,4.35
2023-02-02T23:25:05.441Z,4.18
2023-02-02T23:27:32.238Z,3.40
2023-02-02T23:29:58.972Z,3.78
2023-02-02T23:32:25.645Z,4.43
2023-02-02T23:34:52.318Z,3.58
2023-02-02T23:37:19.071Z,3.95
2023-02-02T23:39:45.702Z,4.15
2023-02-02T23:42:13.266Z,4.03
2023-02-02T23:44:40.020Z,4.90
2023-02-02T23:47:07.063Z,3.60
2023-02-02T23:49:34.182Z,3.88
2023-02-02T23:52:01.217Z,3.67
2023-02-02T23:54:28.328Z,4.88
2023-02-02T23:56:55.442Z,4.47
2023-02-02T23:59:22.151Z,4.47
